createdAt,value
2022-08-03T00:00:15.214Z,96.50
2022-08-03T00:03:57.291Z,96.40
2022-08-03T00:07:40.275Z,96.40
2022-08-03T00:11:22.422Z,96.40
2022-08-03T00:15:08.239Z,96.40
2022-08-03T00:18:53.482Z,96.40
2022-08-03T00:22:35.977Z,96.40
2022-08-03T00:26:18.168Z,96.60
2022-08-03T00:30:00.595Z,96.80
2022-08-03T00:33:59.751Z,96.90
2022-08-03T00:37:44.665Z,97.20
2022-08-03T00:41:26.598Z,97.30
2022-08-03T00:45:08.819Z,97.50
2022-08-03T00:48:51.187Z,97.60
2022-08-03T00:52:33.140Z,97.60
2022-08-03T00:56:16.511Z,97.50
2022-08-03T01:00:00.263Z,97.50
2022-08-03T01:03:42.409Z,97.60
2022-08-03T01:07:32.216Z,97.80
2022-08-03T01:11:34.018Z,97.90
2022-08-03T01:15:43.473Z,97.90
2022-08-03T01:19:25.334Z,98.00
2022-08-03T01:23:28.840Z,98.20
2022-08-03T01:27:15.946Z,97.90
2022-08-03T01:31:05.480Z,98.30
2022-08-03T01:34:52.877Z,98.20
2022-08-03T01:38:38.708Z,98.30
2022-08-03T01:42:21.849Z,98.30
2022-08-03T01:46:05.490Z,98.30
2022-08-03T01:49:50.086Z,98.30
2022-08-03T01:53:35.019Z,98.30
2022-08-03T01:57:18.902Z,98.30
2022-08-03T02:01:02.573Z,98.50
2022-08-03T02:04:46.101Z,98.70
2022-08-03T02:08:29.745Z,98.80
2022-08-03T02:12:14.192Z,98.90
2022-08-03T02:15:58.237Z,99.00
2022-08-03T02:19:41.223Z,99.00
2022-08-03T02:23:23.400Z,99.00
2022-08-03T02:27:14.548Z,99.00
2022-08-03T02:30:58.093Z,98.90
2022-08-03T02:34:42.296Z,98.90
2022-08-03T02:38:29.395Z,98.90
2022-08-03T02:42:14.445Z,98.90
2022-08-03T02:45:56.568Z,99.00
2022-08-03T02:49:51.510Z,98.90
2022-08-03T02:53:34.680Z,99.00
2022-08-03T02:57:19.395Z,98.80
2022-08-03T03:01:03.235Z,99.00
2022-08-03T03:05:55.075Z,99.20
2022-08-03T03:08:49.059Z,99.50
2022-08-03T03:12:33.314Z,99.70
2022-08-03T03:16:16.430Z,99.50
2022-08-03T03:19:59.109Z,99.60
2022-08-03T03:23:42.154Z,99.60
2022-08-03T03:27:24.668Z,99.90
2022-08-03T03:31:09.648Z,99.90
2022-08-03T03:34:51.826Z,99.90
2022-08-03T03:38:34.341Z,99.90
2022-08-03T03:42:16.931Z,99.90
2022-08-03T03:45:59.373Z,99.90
2022-08-03T03:49:42.948Z,99.90
2022-08-03T03:53:25.136Z,99.90
2022-08-03T03:57:07.391Z,99.90
2022-08-03T04:00:54.102Z,99.90
2022-08-03T04:04:55.357Z,99.90
2022-08-03T04:08:56.063Z,99.90
2022-08-03T04:12:39.325Z,99.90
2022-08-03T04:16:37.982Z,99.90
2022-08-03T04:20:24.155Z,99.90
2022-08-03T04:24:09.528Z,99.90
2022-08-03T04:28:27.423Z,99.90
2022-08-03T04:31:56.568Z,99.90
2022-08-03T04:36:00.968Z,99.90
2022-08-03T04:39:42.897Z,99.90
2022-08-03T04:43:26.175Z,99.90
2022-08-03T04:47:08.696Z,99.90
2022-08-03T04:50:51.025Z,99.90
2022-08-03T04:54:40.744Z,99.90
2022-08-03T04:58:22.713Z,99.90
2022-08-03T05:02:04.829Z,99.90
2022-08-03T05:05:50.369Z,99.90
2022-08-03T05:09:49.954Z,99.90
2022-08-03T05:13:34.666Z,99.90
2022-08-03T05:17:16.742Z,99.90
2022-08-03T05:20:58.655Z,99.90
2022-08-03T05:24:41.048Z,99.90
2022-08-03T05:28:56.177Z,99.90
2022-08-03T05:32:38.451Z,99.50
2022-08-03T05:36:32.202Z,99.90
2022-08-03T05:40:14.864Z,99.90
2022-08-03T05:43:58.074Z,99.90
2022-08-03T05:47:48.667Z,99.90
2022-08-03T05:51:31.725Z,99.90
2022-08-03T05:55:14.758Z,99.90
2022-08-03T05:59:16.485Z,99.90
2022-08-03T06:03:06.215Z,99.90
2022-08-03T06:06:56.139Z,99.90
2022-08-03T06:10:39.045Z,99.90
2022-08-03T06:14:21.440Z,99.90
2022-08-03T06:18:12.773Z,99.90
2022-08-03T06:21:54.863Z,99.90
2022-08-03T06:25:37.234Z,99.90
2022-08-03T06:29:31.008Z,99.90
2022-08-03T06:33:12.969Z,99.90
2022-08-03T06:37:01.269Z,99.90
2022-08-03T06:40:43.853Z,99.90
2022-08-03T06:44:27.259Z,99.90
2022-08-03T06:48:11.561Z,99.90
2022-08-03T06:52:05.315Z,99.90
2022-08-03T06:55:54.194Z,99.90
2022-08-03T07:00:05.993Z,99.90
2022-08-03T07:03:54.911Z,99.90
2022-08-03T07:07:57.879Z,99.90
2022-08-03T07:11:40.029Z,99.90
2022-08-03T07:19:29.485Z,99.90
2022-08-03T07:23:11.996Z,99.90
2022-08-03T07:27:19.811Z,99.90
2022-08-03T07:31:02.154Z,99.90
2022-08-03T07:38:39.475Z,99.90
2022-08-03T07:46:23.460Z,99.90
2022-08-03T07:50:09.318Z,99.90
2022-08-03T08:02:10.595Z,99.90
2022-08-03T08:05:53.817Z,99.90
2022-08-03T08:09:53.503Z,99.90
2022-08-03T08:13:37.745Z,99.90
2022-08-03T08:21:27.484Z,99.90
2022-08-03T08:26:02.197Z,99.60
2022-08-03T08:30:12.323Z,99.30
2022-08-03T08:34:04.575Z,98.90
2022-08-03T08:38:07.441Z,98.70
2022-08-03T08:41:53.364Z,98.40
2022-08-03T08:45:57.101Z,98.60
2022-08-03T08:49:53.428Z,98.20
2022-08-03T08:53:53.989Z,97.80
2022-08-03T08:57:43.416Z,97.80
2022-08-03T09:01:41.177Z,97.30
2022-08-03T09:05:41.405Z,97.40
2022-08-03T09:10:10.427Z,97.30
2022-08-03T09:13:36.485Z,97.30
2022-08-03T09:17:39.683Z,97.20
2022-08-03T09:21:33.553Z,96.80
2022-08-03T09:25:37.257Z,96.40
2022-08-03T09:29:21.014Z,96.10
2022-08-03T09:33:15.584Z,95.80
2022-08-03T09:36:58.546Z,96.20
2022-08-03T09:44:51.191Z,95.50
2022-08-03T09:52:49.874Z,94.90
2022-08-03T09:56:52.181Z,94.80
2022-08-03T10:01:25.275Z,95.40
2022-08-03T10:05:09.771Z,96.10
2022-08-03T10:09:15.725Z,95.20
2022-08-03T10:12:58.539Z,95.30
2022-08-03T10:16:41.282Z,97.30
2022-08-03T10:20:36.913Z,96.90
2022-08-03T10:24:26.530Z,98.00
2022-08-03T10:28:24.437Z,99.70
2022-08-03T10:33:49.142Z,99.20
2022-08-03T10:37:32.275Z,99.20
2022-08-03T10:41:16.958Z,99.50
2022-08-03T10:45:23.529Z,98.60
2022-08-03T10:49:06.742Z,97.80
2022-08-03T10:53:14.703Z,98.20
2022-08-03T11:01:59.503Z,97.00
2022-08-03T11:05:55.162Z,96.50
2022-08-03T11:14:00.397Z,96.70
2022-08-03T11:18:11.183Z,96.00
2022-08-03T11:21:55.842Z,95.70
2022-08-03T11:26:10.645Z,94.90
2022-08-03T11:34:10.267Z,95.00
2022-08-03T11:38:14.545Z,94.80
2022-08-03T11:41:56.949Z,94.80
2022-08-03T11:45:39.062Z,94.70
2022-08-03T11:49:31.075Z,94.10
2022-08-03T11:53:18.699Z,94.50
2022-08-03T11:59:16.953Z,96.10
2022-08-03T12:01:52.458Z,97.00
2022-08-03T12:05:51.262Z,97.80
2022-08-03T12:10:11.043Z,97.80
2022-08-03T12:14:49.909Z,97.30
2022-08-03T12:18:46.818Z,97.10
2022-08-03T12:22:37.575Z,98.10
2022-08-03T12:26:56.785Z,98.70
2022-08-03T12:30:41.833Z,98.40
2022-08-03T12:34:50.649Z,99.80
2022-08-03T12:38:36.392Z,98.80
2022-08-03T12:42:40.565Z,99.90
2022-08-03T12:46:22.830Z,99.90
2022-08-03T12:50:27.647Z,99.90
2022-08-03T12:54:24.582Z,99.50
2022-08-03T12:58:36.808Z,98.10
2022-08-03T13:06:26.696Z,97.40
2022-08-03T13:10:09.639Z,96.00
2022-08-03T13:13:59.921Z,95.50
2022-08-03T13:17:43.439Z,95.60
2022-08-03T13:21:25.760Z,95.80
2022-08-03T13:25:17.197Z,94.70
2022-08-03T13:28:59.285Z,93.90
2022-08-03T13:37:08.124Z,94.20
2022-08-03T13:41:05.039Z,93.80
2022-08-03T13:44:47.639Z,93.70
2022-08-03T13:48:59.257Z,93.70
2022-08-03T13:52:41.641Z,93.00
2022-08-03T13:56:53.012Z,92.00
2022-08-03T14:00:35.556Z,92.90
2022-08-03T14:04:40.115Z,91.70
2022-08-03T14:08:22.245Z,92.20
2022-08-03T14:12:08.600Z,91.30
2022-08-03T14:16:09.905Z,92.40
2022-08-03T14:19:54.037Z,91.00
2022-08-03T14:24:08.402Z,90.70
2022-08-03T14:27:50.828Z,91.40
2022-08-03T14:32:09.439Z,90.00
2022-08-03T14:36:14.584Z,90.30
2022-08-03T14:40:00.274Z,89.20
2022-08-03T14:44:05.894Z,85.50
2022-08-03T14:50:10.325Z,86.80
2022-08-03T14:51:59.815Z,83.00
2022-08-03T14:55:49.914Z,85.90
2022-08-03T14:59:54.145Z,83.30
2022-08-03T15:03:39.545Z,85.00
2022-08-03T15:07:45.794Z,81.70
2022-08-03T15:11:28.409Z,83.30
2022-08-03T15:15:11.026Z,79.20
2022-08-03T15:20:02.078Z,79.70
2022-08-03T15:23:32.369Z,83.70
2022-08-03T15:27:15.620Z,79.30
2022-08-03T15:30:57.742Z,77.00
2022-08-03T15:34:50.145Z,77.40
2022-08-03T15:38:33.194Z,79.70
2022-08-03T15:46:30.754Z,76.60
2022-08-03T15:50:59.098Z,75.90
2022-08-03T15:55:09.662Z,79.70
2022-08-03T15:59:03.689Z,78.20
2022-08-03T16:03:09.509Z,75.10
2022-08-03T16:06:52.052Z,74.80
2022-08-03T16:10:56.265Z,75.50
2022-08-03T16:14:51.439Z,76.40
2022-08-03T16:18:49.252Z,73.90
2022-08-03T16:22:31.348Z,75.90
2022-08-03T16:27:01.690Z,74.30
2022-08-03T16:31:09.498Z,76.90
2022-08-03T16:34:51.858Z,75.60
2022-08-03T16:42:35.698Z,75.30
2022-08-03T16:46:17.922Z,76.00
2022-08-03T16:50:19.850Z,76.60
2022-08-03T16:54:07.879Z,75.70
2022-08-03T16:58:09.234Z,76.70
2022-08-03T17:01:55.440Z,78.60
2022-08-03T17:06:04.903Z,78.10
2022-08-03T17:09:51.826Z,78.40
2022-08-03T17:13:56.000Z,78.40
2022-08-03T17:17:43.727Z,79.40
2022-08-03T17:21:59.239Z,78.70
2022-08-03T17:26:01.412Z,80.00
2022-08-03T17:29:59.700Z,80.30
2022-08-03T17:33:43.698Z,80.90
2022-08-03T17:37:57.762Z,80.00
2022-08-03T17:45:54.608Z,79.40
2022-08-03T17:49:59.338Z,79.90
2022-08-03T17:53:49.441Z,80.70
2022-08-03T17:58:02.750Z,80.20
2022-08-03T18:06:12.858Z,82.10
2022-08-03T18:10:20.090Z,81.10
2022-08-03T18:14:17.005Z,81.40
2022-08-03T18:18:14.798Z,80.60
2022-08-03T18:22:03.419Z,81.80
2022-08-03T18:29:46.566Z,81.30
2022-08-03T18:34:32.954Z,81.60
2022-08-03T18:38:49.400Z,82.40
2022-08-03T18:43:18.889Z,82.80
2022-08-03T18:47:43.454Z,83.70
2022-08-03T18:52:02.030Z,83.50
2022-08-03T18:56:02.442Z,84.00
2022-08-03T19:00:05.889Z,84.20
2022-08-03T19:04:24.399Z,84.40
2022-08-03T19:12:41.689Z,84.90
2022-08-03T19:16:44.359Z,85.00
2022-08-03T19:20:31.036Z,85.90
2022-08-03T19:24:59.057Z,86.60
2022-08-03T19:29:14.745Z,86.90
2022-08-03T19:32:57.989Z,87.50
2022-08-03T19:37:00.905Z,88.60
2022-08-03T19:40:51.109Z,88.70
2022-08-03T19:45:10.975Z,89.20
2022-08-03T19:53:11.787Z,88.70
2022-08-03T19:57:19.585Z,89.10
2022-08-03T20:01:19.379Z,89.00
2022-08-03T20:05:14.801Z,89.50
2022-08-03T20:08:58.891Z,89.70
2022-08-03T20:12:41.583Z,90.10
2022-08-03T20:16:23.910Z,90.20
2022-08-03T20:20:06.619Z,90.30
2022-08-03T20:24:03.394Z,90.50
2022-08-03T20:28:07.776Z,90.70
2022-08-03T20:32:07.675Z,90.70
2022-08-03T20:35:52.927Z,90.80
2022-08-03T20:39:37.098Z,90.70
2022-08-03T20:43:20.098Z,90.60
2022-08-03T20:47:04.100Z,90.80
2022-08-03T20:50:46.859Z,90.70
2022-08-03T20:54:31.619Z,90.80
2022-08-03T20:58:14.678Z,90.30
2022-08-03T21:01:57.417Z,90.60
2022-08-03T21:05:51.093Z,90.20
2022-08-03T21:09:49.690Z,90.40
2022-08-03T21:13:50.375Z,90.40
2022-08-03T21:17:41.672Z,90.30
2022-08-03T21:21:26.274Z,90.50
2022-08-03T21:25:10.479Z,90.50
2022-08-03T21:28:56.215Z,90.60
2022-08-03T21:32:41.524Z,91.00
2022-08-03T21:36:28.173Z,90.90
2022-08-03T21:40:12.747Z,91.10
2022-08-03T21:43:55.210Z,91.30
2022-08-03T21:47:39.421Z,91.60
2022-08-03T21:51:26.602Z,91.90
2022-08-03T21:55:18.533Z,92.20
2022-08-03T21:59:16.081Z,92.60
2022-08-03T22:03:10.642Z,92.60
2022-08-03T22:07:00.142Z,93.10
2022-08-03T22:10:46.585Z,93.50
2022-08-03T22:14:29.384Z,93.70
2022-08-03T22:18:12.025Z,93.90
2022-08-03T22:21:54.791Z,94.40
2022-08-03T22:25:40.093Z,94.80
2022-08-03T22:29:22.313Z,94.70
2022-08-03T22:33:10.941Z,94.90
2022-08-03T22:37:02.219Z,94.90
2022-08-03T22:40:44.472Z,94.70
2022-08-03T22:44:27.261Z,94.90
2022-08-03T22:48:10.168Z,94.80
2022-08-03T22:51:53.046Z,94.80
2022-08-03T22:55:35.319Z,94.90
2022-08-03T22:59:38.991Z,94.90
2022-08-03T23:04:00.837Z,94.80
2022-08-03T23:07:32.014Z,94.70
2022-08-03T23:11:17.793Z,94.70
2022-08-03T23:15:02.592Z,94.90
2022-08-03T23:18:48.779Z,94.70
2022-08-03T23:22:32.829Z,94.60
2022-08-03T23:26:15.610Z,94.70
2022-08-03T23:29:59.456Z,94.70
2022-08-03T23:33:44.490Z,94.70
2022-08-03T23:37:27.088Z,94.90
2022-08-03T23:41:09.768Z,95.40
2022-08-03T23:44:55.189Z,95.40
2022-08-03T23:48:37.064Z,95.50
2022-08-03T23:52:36.775Z,95.70
2022-08-03T23:56:35.795Z,95.60
